SWA2215 KBNA-KSAT
Flight info
| Callsign | SWA2215 |
|---|---|
| Flight time | N/A |
| Altitude | 38000 |
| Route | DRURY4 JALAR SQS AEX CAAGE QERVO3 |
| Aircraft | B738/M-SDE2E3FGHIRWXY/LB1 |
Departure
| Time | N/A |
|---|---|
| Airport | Nashville International Airport (KBNA) |
Arrival
| Time | 2026-04-24 19:21 |
|---|---|
| Airport | San Antonio International Airport (KSAT) |
| Time | Latitude | Longitude | Altitude | Speed | Heading |
|---|---|---|---|---|---|
| 2026-04-24 17:02 | 36.12822 | -86.66864 | 568 ft | 0 kts | 228° |
| 2026-04-24 17:08 | 36.12857 | -86.66845 | 568 ft | 0 kts | 158° |
| 2026-04-24 17:08 | 36.12853 | -86.66843 | 572 ft | 2 kts | 153° |
| 2026-04-24 17:09 | 36.12781 | -86.66786 | 575 ft | 10 kts | 183° |
| 2026-04-24 17:09 | 36.12635 | -86.66893 | 570 ft | 15 kts | 247° |
| 2026-04-24 17:10 | 36.12668 | -86.67007 | 567 ft | 14 kts | 305° |
| 2026-04-24 17:10 | 36.12810 | -86.67277 | 573 ft | 13 kts | 250° |
| 2026-04-24 17:11 | 36.12652 | -86.67474 | 570 ft | 12 kts | 210° |
| 2026-04-24 17:12 | 36.12413 | -86.67583 | 574 ft | 0 kts | 136° |
| 2026-04-24 18:54 | 29.80623 | -96.54404 | 34969 ft | 366 kts | 276° |
| 2026-04-24 18:55 | 29.81050 | -96.60225 | 33821 ft | 364 kts | 276° |
| 2026-04-24 18:55 | 29.81259 | -96.63130 | 33123 ft | 363 kts | 276° |
| 2026-04-24 18:55 | 29.81462 | -96.66015 | 32556 ft | 359 kts | 276° |
| 2026-04-24 18:56 | 29.81672 | -96.68895 | 32096 ft | 358 kts | 276° |
| 2026-04-24 18:56 | 29.81886 | -96.71737 | 31655 ft | 355 kts | 276° |
| 2026-04-24 18:56 | 29.82097 | -96.74564 | 31213 ft | 352 kts | 276° |
| 2026-04-24 18:56 | 29.82302 | -96.77356 | 30787 ft | 349 kts | 276° |
| 2026-04-24 18:57 | 29.82506 | -96.80143 | 30359 ft | 347 kts | 276° |
| 2026-04-24 18:57 | 29.82706 | -96.82896 | 29950 ft | 344 kts | 275° |
| 2026-04-24 18:57 | 29.82903 | -96.85640 | 29477 ft | 343 kts | 275° |
| 2026-04-24 18:57 | 29.83100 | -96.88368 | 29026 ft | 340 kts | 275° |
| 2026-04-24 18:58 | 29.83290 | -96.91033 | 28589 ft | 338 kts | 275° |
| 2026-04-24 18:58 | 29.83486 | -96.93768 | 28150 ft | 336 kts | 275° |
| 2026-04-24 18:58 | 29.83677 | -96.96446 | 27728 ft | 334 kts | 275° |
| 2026-04-24 18:58 | 29.83866 | -96.99108 | 27305 ft | 333 kts | 275° |
| 2026-04-24 18:59 | 29.84044 | -97.01618 | 26916 ft | 331 kts | 275° |
| 2026-04-24 18:59 | 29.84238 | -97.04358 | 26487 ft | 330 kts | 275° |
| 2026-04-24 18:59 | 29.84418 | -97.06919 | 26084 ft | 329 kts | 275° |
| 2026-04-24 18:59 | 29.84605 | -97.09582 | 25618 ft | 329 kts | 275° |
| 2026-04-24 19:00 | 29.84790 | -97.12211 | 24897 ft | 340 kts | 275° |
| 2026-04-24 19:00 | 29.84984 | -97.14985 | 24507 ft | 342 kts | 275° |
| 2026-04-24 19:00 | 29.85173 | -97.17683 | 24194 ft | 341 kts | 275° |
| 2026-04-24 19:00 | 29.85365 | -97.20424 | 23902 ft | 340 kts | 275° |
| 2026-04-24 19:01 | 29.85552 | -97.23114 | 23624 ft | 339 kts | 275° |
| 2026-04-24 19:01 | 29.85741 | -97.25827 | 23296 ft | 339 kts | 275° |
| 2026-04-24 19:01 | 29.85929 | -97.28538 | 22956 ft | 338 kts | 275° |
| 2026-04-24 19:01 | 29.86116 | -97.31238 | 22670 ft | 337 kts | 275° |
| 2026-04-24 19:02 | 29.86240 | -97.33019 | 22487 ft | 336 kts | 275° |
| 2026-04-24 19:02 | 29.86487 | -97.36599 | 22114 ft | 334 kts | 275° |
| 2026-04-24 19:02 | 29.86665 | -97.39190 | 21829 ft | 333 kts | 275° |
| 2026-04-24 19:02 | 29.86842 | -97.41782 | 21576 ft | 332 kts | 275° |
| 2026-04-24 19:03 | 29.87022 | -97.44432 | 21338 ft | 331 kts | 275° |
| 2026-04-24 19:03 | 29.87201 | -97.47068 | 21105 ft | 330 kts | 275° |
| 2026-04-24 19:03 | 29.87379 | -97.49708 | 20874 ft | 329 kts | 275° |
| 2026-04-24 19:03 | 29.87555 | -97.52336 | 20662 ft | 328 kts | 275° |
| 2026-04-24 19:04 | 29.87732 | -97.54975 | 19998 ft | 333 kts | 275° |
| 2026-04-24 19:04 | 29.87907 | -97.57595 | 19317 ft | 332 kts | 275° |
| 2026-04-24 19:04 | 29.88086 | -97.60278 | 18617 ft | 331 kts | 274° |
| 2026-04-24 19:04 | 29.88261 | -97.62923 | 17909 ft | 329 kts | 274° |
| 2026-04-24 19:05 | 29.88433 | -97.65514 | 17142 ft | 328 kts | 274° |
| 2026-04-24 19:05 | 29.88605 | -97.68121 | 16388 ft | 326 kts | 274° |
| 2026-04-24 19:05 | 29.88778 | -97.70752 | 15646 ft | 324 kts | 274° |
| 2026-04-24 19:05 | 29.88945 | -97.73303 | 14944 ft | 323 kts | 273° |
| 2026-04-24 19:06 | 29.89114 | -97.75877 | 14245 ft | 322 kts | 273° |
| 2026-04-24 19:06 | 29.89282 | -97.78445 | 13544 ft | 321 kts | 272° |
| 2026-04-24 19:06 | 29.89448 | -97.81005 | 12792 ft | 320 kts | 273° |
| 2026-04-24 19:06 | 29.89614 | -97.83567 | 12039 ft | 320 kts | 273° |
| 2026-04-24 19:07 | 29.89663 | -97.86118 | 11294 ft | 318 kts | 262° |
| 2026-04-24 19:07 | 29.89047 | -97.88548 | 10599 ft | 316 kts | 249° |
| 2026-04-24 19:07 | 29.88518 | -97.90106 | 10139 ft | 315 kts | 249° |
| 2026-04-24 19:07 | 29.87458 | -97.93260 | 9286 ft | 312 kts | 249° |
| 2026-04-24 19:08 | 29.86704 | -97.95529 | 9356 ft | 286 kts | 249° |
| 2026-04-24 19:08 | 29.86003 | -97.97621 | 9073 ft | 280 kts | 249° |
| 2026-04-24 19:08 | 29.85299 | -97.99719 | 8822 ft | 282 kts | 249° |
| 2026-04-24 19:08 | 29.84626 | -98.01728 | 8575 ft | 280 kts | 249° |
| 2026-04-24 19:09 | 29.83929 | -98.03806 | 8313 ft | 276 kts | 250° |
| 2026-04-24 19:09 | 29.83256 | -98.05828 | 8048 ft | 270 kts | 251° |
| 2026-04-24 19:09 | 29.82590 | -98.07830 | 7795 ft | 266 kts | 250° |
| 2026-04-24 19:09 | 29.81930 | -98.09814 | 7565 ft | 264 kts | 251° |
| 2026-04-24 19:10 | 29.81273 | -98.11787 | 7331 ft | 264 kts | 252° |
| 2026-04-24 19:10 | 29.80612 | -98.13767 | 7093 ft | 265 kts | 251° |
| 2026-04-24 19:10 | 29.79947 | -98.15762 | 6864 ft | 269 kts | 251° |
| 2026-04-24 19:10 | 29.79278 | -98.17776 | 6666 ft | 271 kts | 251° |
| 2026-04-24 19:11 | 29.78594 | -98.19835 | 6507 ft | 281 kts | 252° |
| 2026-04-24 19:11 | 29.77882 | -98.21980 | 6156 ft | 281 kts | 252° |
| 2026-04-24 19:11 | 29.77194 | -98.24038 | 6038 ft | 275 kts | 252° |
| 2026-04-24 19:11 | 29.76518 | -98.26062 | 5988 ft | 267 kts | 251° |
| 2026-04-24 19:12 | 29.75859 | -98.28036 | 5983 ft | 263 kts | 251° |
| 2026-04-24 19:12 | 29.75192 | -98.30039 | 6006 ft | 273 kts | 252° |
| 2026-04-24 19:12 | 29.74511 | -98.32079 | 5992 ft | 271 kts | 251° |
| 2026-04-24 19:12 | 29.74046 | -98.33467 | 5974 ft | 269 kts | 252° |
| 2026-04-24 19:13 | 29.73603 | -98.34787 | 5974 ft | 266 kts | 251° |
| 2026-04-24 19:13 | 29.72730 | -98.37426 | 5973 ft | 261 kts | 252° |
| 2026-04-24 19:13 | 29.72099 | -98.39379 | 5972 ft | 254 kts | 253° |
| 2026-04-24 19:13 | 29.71498 | -98.41239 | 5955 ft | 245 kts | 253° |
| 2026-04-24 19:14 | 29.70954 | -98.43030 | 5950 ft | 233 kts | 262° |
| 2026-04-24 19:14 | 29.70898 | -98.44885 | 5827 ft | 229 kts | 276° |
| 2026-04-24 19:14 | 29.70991 | -98.46716 | 5688 ft | 230 kts | 275° |
| 2026-04-24 19:14 | 29.71066 | -98.48572 | 5531 ft | 231 kts | 275° |
| 2026-04-24 19:15 | 29.71134 | -98.50407 | 5387 ft | 229 kts | 274° |
| 2026-04-24 19:15 | 29.71196 | -98.52241 | 5208 ft | 228 kts | 275° |
| 2026-04-24 19:15 | 29.71256 | -98.54030 | 5080 ft | 226 kts | 274° |
| 2026-04-24 19:15 | 29.71313 | -98.55856 | 4919 ft | 225 kts | 273° |
| 2026-04-24 19:16 | 29.70681 | -98.59291 | 4606 ft | 228 kts | 230° |
| 2026-04-24 19:16 | 29.69383 | -98.60401 | 4403 ft | 241 kts | 210° |
| 2026-04-24 19:16 | 29.67865 | -98.61405 | 4291 ft | 250 kts | 211° |
| 2026-04-24 19:17 | 29.66350 | -98.62190 | 4170 ft | 232 kts | 189° |
| 2026-04-24 19:17 | 29.64811 | -98.61900 | 3824 ft | 227 kts | 151° |
| 2026-04-24 19:17 | 29.63690 | -98.60686 | 3498 ft | 217 kts | 134° |
| 2026-04-24 19:17 | 29.62712 | -98.59449 | 3227 ft | 202 kts | 136° |
| 2026-04-24 19:18 | 29.61804 | -98.58289 | 2976 ft | 186 kts | 136° |
| 2026-04-24 19:18 | 29.60978 | -98.57220 | 2746 ft | 172 kts | 136° |
| 2026-04-24 19:18 | 29.60202 | -98.56218 | 2553 ft | 158 kts | 136° |
| 2026-04-24 19:18 | 29.59496 | -98.55304 | 2325 ft | 148 kts | 137° |
| 2026-04-24 19:19 | 29.58823 | -98.54434 | 2164 ft | 143 kts | 137° |
| 2026-04-24 19:19 | 29.58169 | -98.53593 | 1984 ft | 139 kts | 137° |
| 2026-04-24 19:19 | 29.57530 | -98.52768 | 1757 ft | 140 kts | 135° |
| 2026-04-24 19:19 | 29.56863 | -98.51910 | 1538 ft | 146 kts | 132° |
| 2026-04-24 19:20 | 29.56156 | -98.50995 | 1388 ft | 153 kts | 133° |
| 2026-04-24 19:20 | 29.55444 | -98.50019 | 1240 ft | 159 kts | 135° |
| 2026-04-24 19:20 | 29.54713 | -98.49076 | 958 ft | 159 kts | 136° |
| 2026-04-24 19:20 | 29.53969 | -98.48155 | 805 ft | 146 kts | 137° |
| 2026-04-24 19:21 | 29.53504 | -98.47551 | 792 ft | 48 kts | 131° |
| 2026-04-24 19:21 | 29.53328 | -98.47339 | 793 ft | 31 kts | 135° |
| 2026-04-24 19:21 | 29.53149 | -98.47263 | 795 ft | 20 kts | 162° |
| 2026-04-24 19:21 | 29.53021 | -98.47256 | 793 ft | 18 kts | 207° |
| 2026-04-24 19:22 | 29.52964 | -98.47307 | 792 ft | 13 kts | 212° |
| 2026-04-24 19:22 | 29.52938 | -98.47298 | 792 ft | 3 kts | 147° |
| 2026-04-24 19:22 | 29.52923 | -98.47282 | 791 ft | 0 kts | 130° |